createdAt,value
2022-10-30T00:00:48.617Z,3.20
2022-10-30T00:03:16.067Z,3.25
2022-10-30T00:05:51.630Z,3.10
2022-10-30T00:08:20.549Z,3.20
2022-10-30T00:10:50.151Z,3.08
2022-10-30T00:13:17.586Z,2.80
2022-10-30T00:15:52.302Z,3.25
2022-10-30T00:18:20.985Z,3.40
2022-10-30T00:20:48.696Z,3.10
2022-10-30T00:23:15.616Z,3.35
2022-10-30T00:25:42.431Z,3.03
2022-10-30T00:28:09.253Z,3.50
2022-10-30T00:30:36.616Z,3.45
2022-10-30T00:33:04.350Z,3.80
2022-10-30T00:35:31.762Z,3.22
2022-10-30T00:38:00.796Z,4.75
2022-10-30T00:40:28.257Z,3.17
2022-10-30T00:42:55.118Z,3.38
2022-10-30T00:45:22.044Z,3.47
2022-10-30T00:47:59.448Z,3.65
2022-10-30T00:50:31.242Z,3.50
2022-10-30T00:53:00.988Z,3.38
2022-10-30T00:55:34.223Z,3.10
2022-10-30T00:58:03.375Z,2.88
2022-10-30T01:00:31.343Z,2.92
2022-10-30T01:02:58.900Z,2.58
2022-10-30T01:05:28.713Z,3.33
2022-10-30T01:07:55.837Z,3.53
2022-10-30T01:10:23.380Z,3.25
2022-10-30T01:12:53.022Z,3.22
2022-10-30T01:15:26.671Z,3.08
2022-10-30T01:18:08.829Z,3.27
2022-10-30T01:20:54.268Z,2.95
2022-10-30T01:23:23.946Z,2.97
2022-10-30T01:26:20.043Z,3.53
2022-10-30T01:28:57.146Z,3.92
2022-10-30T01:31:51.786Z,3.83
2022-10-30T01:34:21.931Z,2.83
2022-10-30T01:37:02.956Z,4.82
2022-10-30T01:39:48.103Z,3.25
2022-10-30T01:42:53.650Z,2.85
2022-10-30T01:48:31.085Z,3.25
2022-10-30T01:51:21.647Z,3.35
2022-10-30T01:54:26.275Z,3.20
2022-10-30T01:57:08.061Z,3.55
2022-10-30T01:59:51.742Z,2.90
2022-10-30T02:02:18.947Z,3.10
2022-10-30T02:04:46.098Z,3.28
2022-10-30T02:07:13.194Z,3.25
2022-10-30T02:09:40.498Z,3.03
2022-10-30T02:12:08.673Z,3.03
2022-10-30T02:14:40.049Z,3.47
2022-10-30T02:17:08.121Z,3.47
2022-10-30T02:19:35.446Z,4.60
2022-10-30T02:22:02.582Z,4.35
2022-10-30T02:24:30.937Z,2.53
2022-10-30T02:26:57.904Z,3.22
2022-10-30T02:29:25.099Z,3.33
2022-10-30T02:31:51.882Z,3.33
2022-10-30T02:34:18.646Z,4.13
2022-10-30T02:36:45.430Z,3.95
2022-10-30T02:39:12.294Z,2.88
2022-10-30T02:41:39.210Z,3.83
2022-10-30T02:44:09.280Z,3.63
2022-10-30T02:46:36.066Z,3.80
2022-10-30T02:49:02.928Z,3.47
2022-10-30T02:51:32.226Z,3.40
2022-10-30T02:54:01.948Z,4.28
2022-10-30T02:56:28.924Z,4.25
2022-10-30T02:58:56.515Z,3.83
2022-10-30T03:01:23.498Z,3.40
2022-10-30T03:03:50.996Z,4.05
2022-10-30T03:06:18.441Z,4.28
2022-10-30T03:08:45.244Z,3.63
2022-10-30T03:11:15.160Z,3.97
2022-10-30T03:13:43.137Z,3.85
2022-10-30T03:16:18.754Z,3.30
2022-10-30T03:18:46.135Z,3.65
2022-10-30T03:21:16.183Z,4.30
2022-10-30T03:23:43.143Z,3.60
2022-10-30T03:26:10.269Z,3.78
2022-10-30T03:28:37.730Z,2.63
2022-10-30T03:31:10.425Z,3.50
2022-10-30T03:33:37.770Z,3.97
2022-10-30T03:36:06.525Z,3.47
2022-10-30T03:38:33.384Z,4.07
2022-10-30T03:41:00.622Z,3.55
2022-10-30T03:43:27.615Z,4.60
2022-10-30T03:45:56.000Z,3.17
2022-10-30T03:48:28.095Z,4.75
2022-10-30T03:50:56.501Z,3.70
2022-10-30T03:53:26.149Z,3.40
2022-10-30T03:55:56.835Z,5.38
2022-10-30T03:58:23.652Z,4.20
2022-10-30T04:00:50.469Z,3.85
2022-10-30T04:03:17.284Z,3.53
2022-10-30T04:05:44.043Z,3.25
2022-10-30T04:08:14.643Z,3.50
2022-10-30T04:10:45.911Z,4.30
2022-10-30T04:13:15.664Z,4.07
2022-10-30T04:15:43.345Z,3.70
2022-10-30T04:18:14.908Z,4.00
2022-10-30T04:20:42.135Z,3.38
2022-10-30T04:23:13.330Z,3.83
2022-10-30T04:25:40.773Z,5.05
2022-10-30T04:28:07.557Z,5.18
2022-10-30T04:30:35.391Z,4.50
2022-10-30T04:33:04.514Z,4.15
2022-10-30T04:35:34.202Z,4.15
2022-10-30T04:38:03.273Z,4.30
2022-10-30T04:40:32.706Z,4.25
2022-10-30T04:43:00.354Z,4.30
2022-10-30T04:45:27.397Z,4.18
2022-10-30T04:48:04.301Z,4.00
2022-10-30T04:50:32.275Z,3.65
2022-10-30T04:53:04.278Z,3.42
2022-10-30T04:55:31.398Z,4.57
2022-10-30T04:58:00.270Z,4.10
2022-10-30T05:00:27.546Z,3.95
2022-10-30T05:02:54.463Z,4.13
2022-10-30T05:05:21.905Z,4.40
2022-10-30T05:07:48.702Z,4.65
2022-10-30T05:10:17.038Z,4.68
2022-10-30T05:12:44.663Z,5.47
2022-10-30T05:15:12.835Z,3.78
2022-10-30T05:17:40.195Z,4.00
2022-10-30T05:20:08.090Z,3.97
2022-10-30T05:22:34.876Z,4.53
2022-10-30T05:25:01.676Z,3.95
2022-10-30T05:27:28.447Z,3.80
2022-10-30T05:29:55.192Z,4.15
2022-10-30T05:32:22.034Z,4.40
2022-10-30T05:34:48.831Z,4.53
2022-10-30T05:37:15.613Z,5.18
2022-10-30T05:39:42.412Z,4.38
2022-10-30T05:42:13.528Z,4.68
2022-10-30T05:44:59.915Z,4.25
2022-10-30T05:47:27.649Z,4.32
2022-10-30T05:49:54.438Z,4.80
2022-10-30T05:52:21.284Z,4.28
2022-10-30T05:54:48.065Z,5.00
2022-10-30T05:57:14.892Z,4.53
2022-10-30T05:59:41.832Z,4.40
2022-10-30T06:02:08.913Z,4.13
2022-10-30T06:04:35.713Z,3.95
2022-10-30T06:07:02.595Z,4.72
2022-10-30T06:09:29.554Z,4.68
2022-10-30T06:11:56.534Z,5.07
2022-10-30T06:14:23.386Z,4.28
2022-10-30T06:16:50.487Z,4.93
2022-10-30T06:19:18.863Z,4.30
2022-10-30T06:21:46.540Z,4.32
2022-10-30T06:24:14.188Z,5.35
2022-10-30T06:26:41.541Z,4.20
2022-10-30T06:29:08.362Z,4.68
2022-10-30T06:31:35.189Z,4.30
2022-10-30T06:34:02.151Z,4.57
2022-10-30T06:36:29.458Z,4.35
2022-10-30T06:38:56.249Z,4.75
2022-10-30T06:41:27.526Z,4.35
2022-10-30T06:43:57.169Z,4.65
2022-10-30T06:46:27.094Z,5.20
2022-10-30T06:48:57.667Z,5.13
2022-10-30T06:51:25.477Z,5.18
2022-10-30T06:53:52.248Z,4.82
2022-10-30T06:56:19.053Z,5.03
2022-10-30T06:58:45.808Z,5.07
2022-10-30T07:01:12.991Z,4.88
2022-10-30T07:03:40.038Z,4.72
2022-10-30T07:06:07.074Z,4.95
2022-10-30T07:08:33.998Z,5.22
2022-10-30T07:11:00.796Z,4.70
2022-10-30T07:13:27.552Z,5.78
2022-10-30T07:15:54.679Z,5.93
2022-10-30T07:18:21.516Z,5.03
2022-10-30T07:20:48.287Z,5.45
2022-10-30T07:23:15.025Z,5.55
2022-10-30T07:25:41.823Z,4.72
2022-10-30T07:28:08.582Z,5.55
2022-10-30T07:30:35.363Z,5.30
2022-10-30T07:33:04.666Z,6.13
2022-10-30T07:35:32.456Z,4.55
2022-10-30T07:38:07.712Z,5.22
2022-10-30T07:40:34.937Z,5.20
2022-10-30T07:43:03.453Z,5.07
2022-10-30T07:45:31.062Z,5.75
2022-10-30T07:47:58.419Z,5.25
2022-10-30T07:50:25.690Z,5.45
2022-10-30T07:52:52.515Z,4.82
2022-10-30T07:55:19.414Z,5.05
2022-10-30T07:57:46.367Z,5.55
2022-10-30T08:00:14.639Z,5.88
2022-10-30T08:02:42.639Z,5.45
2022-10-30T08:05:09.749Z,5.25
2022-10-30T08:07:39.040Z,5.80
2022-10-30T08:10:07.663Z,5.43
2022-10-30T08:12:36.294Z,5.57
2022-10-30T08:15:03.253Z,5.95
2022-10-30T08:17:30.247Z,5.57
2022-10-30T08:19:57.234Z,5.68
2022-10-30T08:22:24.843Z,5.78
2022-10-30T08:24:51.831Z,5.00
2022-10-30T08:27:18.764Z,5.40
2022-10-30T08:29:45.586Z,5.30
2022-10-30T08:32:12.397Z,5.82
2022-10-30T08:34:39.205Z,5.97
2022-10-30T08:37:07.916Z,5.63
2022-10-30T08:39:34.877Z,6.45
2022-10-30T08:42:01.726Z,5.18
2022-10-30T08:44:28.599Z,5.85
2022-10-30T08:46:55.656Z,5.05
2022-10-30T08:49:22.435Z,5.05
2022-10-30T08:51:49.210Z,4.50
2022-10-30T08:54:16.045Z,6.38
2022-10-30T08:56:42.976Z,5.38
2022-10-30T08:59:09.846Z,5.30
2022-10-30T09:01:36.996Z,5.70
2022-10-30T09:04:04.194Z,5.57
2022-10-30T09:06:31.871Z,5.97
2022-10-30T09:08:58.835Z,5.97
2022-10-30T09:11:25.928Z,4.65
2022-10-30T09:13:53.009Z,5.25
2022-10-30T09:16:19.949Z,5.53
2022-10-30T09:18:46.723Z,5.35
2022-10-30T09:21:13.546Z,4.93
2022-10-30T09:23:42.375Z,5.07
2022-10-30T09:26:09.347Z,5.63
2022-10-30T09:28:36.106Z,4.68
2022-10-30T09:31:03.127Z,4.50
2022-10-30T09:33:30.179Z,4.97
2022-10-30T09:35:57.305Z,4.95
2022-10-30T09:38:24.155Z,5.03
2022-10-30T09:41:03.664Z,4.55
2022-10-30T09:43:49.091Z,5.70
2022-10-30T09:46:45.010Z,5.35
2022-10-30T09:49:35.241Z,5.22
2022-10-30T09:52:02.114Z,4.63
2022-10-30T09:54:50.421Z,5.25
2022-10-30T09:57:46.154Z,5.47
2022-10-30T10:00:17.566Z,5.43
2022-10-30T10:03:05.475Z,4.95
2022-10-30T10:05:44.319Z,5.90
2022-10-30T10:08:18.494Z,5.30
2022-10-30T10:10:48.974Z,5.70
2022-10-30T10:13:28.841Z,5.03
2022-10-30T10:16:11.939Z,4.97
2022-10-30T10:18:48.270Z,4.85
2022-10-30T10:21:29.312Z,4.82
2022-10-30T10:24:02.200Z,3.92
2022-10-30T10:26:47.773Z,5.07
2022-10-30T10:29:49.626Z,4.65
2022-10-30T10:32:29.050Z,3.55
2022-10-30T10:35:33.398Z,5.28
2022-10-30T10:38:12.631Z,4.82
2022-10-30T10:41:00.894Z,3.65
2022-10-30T10:43:39.850Z,3.55
2022-10-30T10:46:20.961Z,4.05
2022-10-30T10:49:12.466Z,6.13
2022-10-30T10:51:45.783Z,5.30
2022-10-30T10:54:18.436Z,4.88
2022-10-30T10:56:48.424Z,6.50
2022-10-30T10:59:30.121Z,5.88
2022-10-30T11:02:13.869Z,6.32
2022-10-30T11:04:43.515Z,4.77
2022-10-30T11:07:21.521Z,5.13
2022-10-30T11:09:53.030Z,5.57
2022-10-30T11:12:25.804Z,5.30
2022-10-30T11:14:52.604Z,5.20
2022-10-30T11:17:42.955Z,4.75
2022-10-30T11:20:35.943Z,5.45
2022-10-30T11:23:03.049Z,5.63
2022-10-30T11:25:36.358Z,4.60
2022-10-30T11:28:05.714Z,5.68
2022-10-30T11:30:32.751Z,5.07
2022-10-30T11:33:19.922Z,5.00
2022-10-30T11:35:46.839Z,5.32
2022-10-30T11:38:19.985Z,5.32
2022-10-30T11:40:52.496Z,4.53
2022-10-30T11:43:24.082Z,6.03
2022-10-30T11:45:51.679Z,6.70
2022-10-30T11:48:40.297Z,5.47
2022-10-30T11:51:07.196Z,5.28
2022-10-30T11:53:47.976Z,5.18
2022-10-30T11:56:20.077Z,4.72
2022-10-30T11:58:56.903Z,4.07
2022-10-30T12:01:29.187Z,5.07
2022-10-30T12:03:57.366Z,5.32
2022-10-30T12:06:24.838Z,5.35
2022-10-30T12:09:19.712Z,5.30
2022-10-30T12:11:48.683Z,4.05
2022-10-30T12:14:21.870Z,4.95
2022-10-30T12:16:50.916Z,3.47
2022-10-30T12:19:20.145Z,4.70
2022-10-30T12:21:55.231Z,4.72
2022-10-30T12:24:32.617Z,4.65
2022-10-30T12:27:04.887Z,4.55
2022-10-30T12:30:07.340Z,4.95
2022-10-30T12:32:45.156Z,4.85
2022-10-30T12:35:25.332Z,4.55
2022-10-30T12:37:54.334Z,4.90
2022-10-30T12:40:30.765Z,5.40
2022-10-30T12:43:14.002Z,4.22
2022-10-30T12:45:44.104Z,3.90
2022-10-30T12:48:38.763Z,4.70
2022-10-30T12:51:24.079Z,4.75
2022-10-30T12:54:20.277Z,4.88
2022-10-30T12:56:51.324Z,4.13
2022-10-30T12:59:28.859Z,3.78
2022-10-30T13:02:32.948Z,4.35
2022-10-30T13:05:14.986Z,4.18
2022-10-30T13:07:51.904Z,4.50
2022-10-30T13:10:33.240Z,4.30
2022-10-30T13:13:07.872Z,4.63
2022-10-30T13:15:42.073Z,3.83
2022-10-30T13:18:23.306Z,5.03
2022-10-30T13:20:53.099Z,5.03
2022-10-30T13:23:25.470Z,3.92
2022-10-30T13:26:01.446Z,4.75
2022-10-30T13:29:10.143Z,5.60
2022-10-30T13:31:54.991Z,5.28
2022-10-30T13:34:40.620Z,5.10
2022-10-30T13:37:24.174Z,4.75
2022-10-30T13:40:15.853Z,5.00
2022-10-30T13:42:45.402Z,4.75
2022-10-30T13:45:31.075Z,4.57
2022-10-30T13:48:15.847Z,4.10
2022-10-30T13:53:27.930Z,4.35
2022-10-30T13:55:56.187Z,3.72
2022-10-30T13:58:38.589Z,4.30
2022-10-30T14:01:20.529Z,3.67
2022-10-30T14:03:47.401Z,3.38
2022-10-30T14:06:40.626Z,4.90
2022-10-30T14:09:29.360Z,4.13
2022-10-30T14:11:56.309Z,3.90
2022-10-30T14:14:30.226Z,4.50
2022-10-30T14:17:15.264Z,3.38
2022-10-30T14:20:12.542Z,4.00
2022-10-30T14:22:41.356Z,3.85
2022-10-30T14:25:16.183Z,3.97
2022-10-30T14:27:43.151Z,3.65
2022-10-30T14:30:20.455Z,4.13
2022-10-30T14:32:53.709Z,4.57
2022-10-30T14:35:38.489Z,3.03
2022-10-30T14:38:08.259Z,3.45
2022-10-30T14:40:38.262Z,3.85
2022-10-30T14:43:30.507Z,3.40
2022-10-30T14:46:10.411Z,5.72
2022-10-30T14:49:11.034Z,4.30
2022-10-30T14:51:59.533Z,3.58
2022-10-30T14:54:39.690Z,3.45
2022-10-30T14:57:22.060Z,3.55
2022-10-30T14:59:48.855Z,3.47
2022-10-30T15:02:18.497Z,2.90
2022-10-30T15:05:08.791Z,3.75
2022-10-30T15:07:57.738Z,3.70
2022-10-30T15:10:36.294Z,3.30
2022-10-30T15:13:22.928Z,3.28
2022-10-30T15:16:08.821Z,3.15
2022-10-30T15:18:35.772Z,3.60
2022-10-30T15:21:07.594Z,3.85
2022-10-30T15:23:37.137Z,3.45
2022-10-30T15:26:10.037Z,3.20
2022-10-30T15:28:38.108Z,4.15
2022-10-30T15:31:22.203Z,3.53
2022-10-30T15:33:49.054Z,3.67
2022-10-30T15:36:34.322Z,3.55
2022-10-30T15:39:06.379Z,3.63
2022-10-30T15:41:48.784Z,3.63
2022-10-30T15:44:27.618Z,3.85
2022-10-30T15:46:56.905Z,4.28
2022-10-30T15:49:31.538Z,4.20
2022-10-30T15:52:00.138Z,5.28
2022-10-30T15:54:28.903Z,6.53
2022-10-30T15:59:52.685Z,8.98
2022-10-30T16:02:26.910Z,9.10
2022-10-30T16:07:23.747Z,6.55
2022-10-30T16:09:59.340Z,6.18
2022-10-30T16:12:29.408Z,7.18
2022-10-30T16:14:58.436Z,5.30
2022-10-30T16:17:26.713Z,6.18
2022-10-30T16:19:56.689Z,5.63
2022-10-30T16:22:34.414Z,5.75
2022-10-30T16:25:01.666Z,5.90
2022-10-30T16:27:28.486Z,5.57
2022-10-30T16:30:00.333Z,5.47
2022-10-30T16:32:31.810Z,4.68
2022-10-30T16:35:01.586Z,5.30
2022-10-30T16:37:40.695Z,5.07
2022-10-30T16:40:16.634Z,4.85
2022-10-30T16:42:54.807Z,5.03
2022-10-30T16:45:24.735Z,4.60
2022-10-30T16:48:09.209Z,5.07
2022-10-30T16:53:24.173Z,5.10
2022-10-30T16:55:52.271Z,5.65
2022-10-30T16:58:20.838Z,4.82
2022-10-30T17:00:56.760Z,5.93
2022-10-30T17:03:26.494Z,6.00
2022-10-30T17:06:01.808Z,5.18
2022-10-30T17:08:42.470Z,5.15
2022-10-30T17:11:20.558Z,5.53
2022-10-30T17:13:58.169Z,5.50
2022-10-30T17:16:34.057Z,5.15
2022-10-30T17:19:21.800Z,5.97
2022-10-30T17:21:52.940Z,5.78
2022-10-30T17:24:41.677Z,6.60
2022-10-30T17:27:28.204Z,4.97
2022-10-30T17:29:56.344Z,5.93
2022-10-30T17:32:25.470Z,5.60
2022-10-30T17:35:12.666Z,5.53
2022-10-30T17:37:39.416Z,5.70
2022-10-30T17:40:06.808Z,5.97
2022-10-30T17:42:34.316Z,6.30
2022-10-30T17:45:01.107Z,5.85
2022-10-30T17:47:28.854Z,6.38
2022-10-30T17:49:55.632Z,6.57
2022-10-30T17:52:22.472Z,6.45
2022-10-30T17:54:49.696Z,6.60
2022-10-30T17:57:16.880Z,6.22
2022-10-30T17:59:43.954Z,7.60
2022-10-30T18:02:16.041Z,7.53
2022-10-30T18:04:43.551Z,7.13
2022-10-30T18:07:11.764Z,6.70
2022-10-30T18:09:39.553Z,8.07
2022-10-30T18:12:10.642Z,7.50
2022-10-30T18:14:37.477Z,7.25
2022-10-30T18:17:04.300Z,6.15
2022-10-30T18:19:31.155Z,7.32
2022-10-30T18:21:57.982Z,7.43
2022-10-30T18:24:24.775Z,7.38
2022-10-30T18:26:51.642Z,7.90
2022-10-30T18:29:18.687Z,6.57
2022-10-30T18:31:45.568Z,6.93
2022-10-30T18:34:20.509Z,6.78
2022-10-30T18:36:48.179Z,5.93
2022-10-30T18:39:15.019Z,6.40
2022-10-30T18:41:46.215Z,7.22
2022-10-30T18:44:18.176Z,7.43
2022-10-30T18:46:45.848Z,6.70
2022-10-30T18:49:13.314Z,7.55
2022-10-30T18:51:40.566Z,6.63
2022-10-30T18:54:25.590Z,6.15
2022-10-30T18:56:52.365Z,5.55
2022-10-30T18:59:19.217Z,5.40
2022-10-30T19:01:46.108Z,6.30
2022-10-30T19:04:15.685Z,6.15
2022-10-30T19:06:44.847Z,6.72
2022-10-30T19:09:11.748Z,6.45
2022-10-30T19:11:43.310Z,5.35
2022-10-30T19:14:15.317Z,6.07
2022-10-30T19:16:42.225Z,5.53
2022-10-30T19:19:09.024Z,6.75
2022-10-30T19:21:36.026Z,6.47
2022-10-30T19:24:08.582Z,6.15
2022-10-30T19:26:35.335Z,6.05
2022-10-30T19:29:02.107Z,5.97
2022-10-30T19:31:28.909Z,5.65
2022-10-30T19:33:57.460Z,5.10
2022-10-30T19:36:30.928Z,6.35
2022-10-30T19:38:57.949Z,6.22
2022-10-30T19:41:25.212Z,6.50
2022-10-30T19:43:53.235Z,8.85
2022-10-30T19:46:20.918Z,6.63
2022-10-30T19:49:03.102Z,5.97
2022-10-30T19:51:29.885Z,5.97
2022-10-30T19:53:56.772Z,6.80
2022-10-30T19:56:23.908Z,6.72
2022-10-30T19:58:50.831Z,8.15
2022-10-30T20:01:17.971Z,7.60
2022-10-30T20:03:44.976Z,7.22
2022-10-30T20:06:13.483Z,7.38
2022-10-30T20:08:40.592Z,8.13
2022-10-30T20:11:07.531Z,7.18
2022-10-30T20:13:34.513Z,6.82
2022-10-30T20:16:04.680Z,6.50
2022-10-30T20:18:33.847Z,8.07
2022-10-30T20:21:03.043Z,7.85
2022-10-30T20:23:30.307Z,7.30
2022-10-30T20:26:23.024Z,7.82
2022-10-30T20:28:50.543Z,6.70
2022-10-30T20:31:18.587Z,6.32
2022-10-30T20:33:45.429Z,8.70
2022-10-30T20:36:13.597Z,7.28
2022-10-30T20:38:40.584Z,6.72
2022-10-30T20:41:18.339Z,6.72
2022-10-30T20:43:45.171Z,8.00
2022-10-30T20:46:12.967Z,6.85
2022-10-30T20:48:39.871Z,7.20
2022-10-30T20:51:06.841Z,6.50
2022-10-30T20:53:34.281Z,6.15
2022-10-30T20:56:01.192Z,6.68
2022-10-30T20:58:28.533Z,6.53
2022-10-30T21:00:58.328Z,7.18
2022-10-30T21:03:26.425Z,6.60
2022-10-30T21:06:01.141Z,7.53
2022-10-30T21:08:31.340Z,7.35
2022-10-30T21:10:59.849Z,7.93
2022-10-30T21:13:28.702Z,8.60
2022-10-30T23:39:29.318Z,6.20
2022-10-30T23:41:56.084Z,6.43
2022-10-30T23:44:22.885Z,6.30
2022-10-30T23:46:49.665Z,5.93
2022-10-30T23:49:16.459Z,5.88
2022-10-30T23:51:43.295Z,6.03
2022-10-30T23:54:10.210Z,5.43
2022-10-30T23:56:37.054Z,6.45
2022-10-30T23:59:03.914Z,6.47
